createdAt,value
2022-08-23T00:03:16.250Z,97002.00
2022-08-23T00:08:17.085Z,97000.00
2022-08-23T00:13:18.481Z,97007.00
2022-08-23T00:18:20.274Z,97003.00
2022-08-23T00:23:21.186Z,96992.00
2022-08-23T00:28:22.063Z,96994.00
2022-08-23T00:33:23.695Z,97004.00
2022-08-23T00:38:34.066Z,96989.00
2022-08-23T00:43:58.259Z,96995.00
2022-08-23T00:49:03.639Z,97005.00
2022-08-23T00:54:04.869Z,96997.00
2022-08-23T00:59:06.554Z,97003.00
2022-08-23T01:04:10.698Z,97012.00
2022-08-23T01:09:15.712Z,97008.00
2022-08-23T01:15:49.584Z,97008.00
2022-08-23T01:20:58.686Z,97004.00
2022-08-23T01:26:03.256Z,96999.00
2022-08-23T01:31:06.593Z,96999.00
2022-08-23T01:36:14.692Z,97004.00
2022-08-23T01:41:16.370Z,97009.00
2022-08-23T01:46:21.197Z,97016.00
2022-08-23T01:51:23.487Z,97012.00
2022-08-23T01:56:38.051Z,97013.00
2022-08-23T02:01:40.568Z,97017.00
2022-08-23T02:06:41.429Z,97019.00
2022-08-23T02:11:46.409Z,97015.00
2022-08-23T02:17:03.921Z,97013.00
2022-08-23T02:22:08.672Z,97010.00
2022-08-23T02:27:10.174Z,97019.00
2022-08-23T02:32:16.181Z,97021.00
2022-08-23T02:37:17.038Z,97017.00
2022-08-23T02:42:18.068Z,97018.00
2022-08-23T02:47:18.949Z,97024.00
2022-08-23T02:52:29.373Z,97030.00
2022-08-23T02:57:31.578Z,97027.00
2022-08-23T03:02:33.624Z,97034.00
2022-08-23T03:07:35.185Z,97029.00
2022-08-23T03:12:37.622Z,97031.00
2022-08-23T03:17:39.307Z,97030.00
2022-08-23T03:22:48.231Z,97033.00
2022-08-23T03:27:54.958Z,97035.00
2022-08-23T03:32:56.009Z,97040.00
2022-08-23T03:37:57.003Z,97039.00
2022-08-23T03:42:57.878Z,97037.00
2022-08-23T03:48:00.041Z,97035.00
2022-08-23T03:53:02.154Z,97038.00
2022-08-23T03:58:03.237Z,97036.00
2022-08-23T04:03:04.266Z,97046.00
2022-08-23T04:08:10.420Z,97038.00
2022-08-23T04:13:12.699Z,97050.00
2022-08-23T04:18:14.424Z,97056.00
2022-08-23T04:23:15.950Z,97068.00
2022-08-23T04:28:23.370Z,97071.00
2022-08-23T04:33:24.322Z,97076.00
2022-08-23T04:38:25.734Z,97076.00
2022-08-23T04:43:29.589Z,97087.00
2022-08-23T04:48:30.864Z,97089.00
2022-08-23T04:53:34.437Z,97099.00
2022-08-23T04:58:54.381Z,97097.00
2022-08-23T05:03:56.368Z,97097.00
2022-08-23T05:09:01.078Z,97109.00
2022-08-23T05:14:02.946Z,97113.00
2022-08-23T05:19:04.239Z,97116.00
2022-08-23T05:24:07.437Z,97118.00
2022-08-23T05:29:08.819Z,97123.00
2022-08-23T05:34:14.837Z,97119.00
2022-08-23T05:39:25.743Z,97139.00
2022-08-23T05:44:37.205Z,97139.00
2022-08-23T05:49:40.021Z,97134.00
2022-08-23T05:54:41.479Z,97143.00
2022-08-23T06:00:05.311Z,97143.00
2022-08-23T06:05:07.254Z,97160.00
2022-08-23T06:10:09.133Z,97159.00
2022-08-23T06:15:19.663Z,97169.00
2022-08-23T06:20:20.555Z,97161.00
2022-08-23T06:25:42.333Z,97168.00
2022-08-23T06:30:49.706Z,97170.00
2022-08-23T06:36:05.459Z,97172.00
2022-08-23T06:41:24.663Z,97167.00
2022-08-23T06:46:41.537Z,97173.00
2022-08-23T06:51:46.117Z,97179.00
2022-08-23T06:56:53.231Z,97182.00
2022-08-23T07:02:01.429Z,97182.00
2022-08-23T07:07:56.105Z,97174.00
2022-08-23T07:12:57.462Z,97190.00
2022-08-23T07:17:58.471Z,97189.00
2022-08-23T07:23:01.150Z,97197.00
2022-08-23T07:28:03.069Z,97196.00
2022-08-23T07:33:04.369Z,97193.00
2022-08-23T07:38:11.969Z,97203.00
2022-08-23T07:43:13.069Z,97207.00
2022-08-23T07:48:23.537Z,97206.00
2022-08-23T07:53:46.182Z,97216.00
2022-08-23T07:58:49.944Z,97214.00
2022-08-23T08:04:07.780Z,97218.00
2022-08-23T08:09:12.090Z,97220.00
2022-08-23T08:14:14.566Z,97223.00
2022-08-23T08:19:22.411Z,97222.00
2022-08-23T08:24:42.004Z,97223.00
2022-08-23T08:29:46.237Z,97222.00
2022-08-23T08:34:47.499Z,97224.00
2022-08-23T08:39:48.564Z,97233.00
2022-08-23T08:45:45.330Z,97238.00
2022-08-23T08:51:06.009Z,97240.00
2022-08-23T08:56:32.134Z,97234.00
2022-08-23T09:01:53.406Z,97235.00
2022-08-23T09:07:25.924Z,97234.00
2022-08-23T09:19:20.105Z,97238.00
2022-08-23T09:24:22.258Z,97239.00
2022-08-23T09:29:33.495Z,97240.00
2022-08-23T09:34:41.567Z,97221.00
2022-08-23T09:39:51.278Z,97223.00
2022-08-23T09:44:55.611Z,97221.00
2022-08-23T09:50:15.884Z,97224.00
2022-08-23T09:55:37.924Z,97221.00
2022-08-23T10:00:39.392Z,97220.00
2022-08-23T10:05:41.676Z,97218.00
2022-08-23T10:10:52.015Z,97219.00
2022-08-23T10:18:03.506Z,97229.00
2022-08-23T10:24:48.794Z,97221.00
2022-08-23T10:29:58.065Z,97221.00
2022-08-23T10:35:25.761Z,97220.00
2022-08-23T10:40:45.922Z,97223.00
2022-08-23T10:45:48.597Z,97224.00
2022-08-23T10:51:21.282Z,97216.00
2022-08-23T10:56:25.263Z,97210.00
2022-08-23T11:02:48.887Z,97203.00
2022-08-23T11:08:05.917Z,97200.00
2022-08-23T11:13:30.862Z,97194.00
2022-08-23T11:18:43.699Z,97194.00
2022-08-23T11:25:39.786Z,97191.00
2022-08-23T11:30:50.657Z,97196.00
2022-08-23T11:37:56.175Z,97196.00
2022-08-23T11:43:05.488Z,97190.00
2022-08-23T11:48:43.611Z,97187.00
2022-08-23T11:54:23.209Z,97183.00
2022-08-23T12:02:31.412Z,97183.00
2022-08-23T12:09:38.338Z,97180.00
2022-08-23T12:14:58.814Z,97173.00
2022-08-23T12:20:17.210Z,97172.00
2022-08-23T12:25:21.419Z,97166.00
2022-08-23T12:30:34.181Z,97161.00
2022-08-23T12:36:28.212Z,97168.00
2022-08-23T12:42:33.624Z,97162.00
2022-08-23T12:47:38.488Z,97160.00
2022-08-23T12:52:42.087Z,97160.00
2022-08-23T12:57:49.743Z,97156.00
2022-08-23T13:03:21.034Z,97153.00
2022-08-23T13:08:34.894Z,97158.00
2022-08-23T13:13:42.265Z,97153.00
2022-08-23T13:18:45.187Z,97143.00
2022-08-23T13:23:47.916Z,97146.00
2022-08-23T13:30:56.185Z,97148.00
2022-08-23T13:36:15.485Z,97144.00
2022-08-23T13:41:38.755Z,97142.00
2022-08-23T13:46:46.738Z,97142.00
2022-08-23T13:53:40.067Z,97145.00
2022-08-23T13:58:41.525Z,97142.00
2022-08-23T14:03:42.483Z,97134.00
2022-08-23T14:08:43.646Z,97139.00
2022-08-23T14:13:47.880Z,97139.00
2022-08-23T14:24:19.706Z,97138.00
2022-08-23T14:29:22.431Z,97138.00
2022-08-23T14:34:24.723Z,97134.00
2022-08-23T14:39:25.579Z,97131.00
2022-08-23T14:44:31.629Z,97129.00
2022-08-23T14:49:35.480Z,97134.00
2022-08-23T14:54:36.338Z,97135.00
2022-08-23T14:59:37.550Z,97135.00
2022-08-23T15:04:39.677Z,97140.00
2022-08-23T15:09:41.390Z,97137.00
2022-08-23T15:14:42.241Z,97135.00
2022-08-23T15:19:43.182Z,97125.00
2022-08-23T15:24:44.030Z,97129.00
2022-08-23T15:29:45.104Z,97116.00
2022-08-23T15:34:46.360Z,97122.00
2022-08-23T15:39:48.869Z,97133.00
2022-08-23T15:44:49.770Z,97129.00
2022-08-23T15:49:51.593Z,97129.00
2022-08-23T15:54:53.618Z,97129.00
2022-08-23T15:59:56.751Z,97128.00
2022-08-23T16:04:57.626Z,97128.00
2022-08-23T16:09:59.989Z,97133.00
2022-08-23T16:15:01.149Z,97136.00
2022-08-23T16:20:04.105Z,97132.00
2022-08-23T16:25:06.079Z,97127.00
2022-08-23T16:30:07.614Z,97123.00
2022-08-23T16:35:10.973Z,97125.00
2022-08-23T16:40:12.577Z,97119.00
2022-08-23T16:45:13.891Z,97128.00
2022-08-23T16:50:14.832Z,97133.00
2022-08-23T16:55:16.593Z,97128.00
2022-08-23T17:00:17.659Z,97124.00
2022-08-23T17:05:19.484Z,97125.00
2022-08-23T17:10:22.404Z,97128.00
2022-08-23T17:15:30.779Z,97126.00
2022-08-23T17:20:35.244Z,97126.00
2022-08-23T17:25:37.376Z,97142.00
2022-08-23T17:30:38.583Z,97144.00
2022-08-23T17:35:39.471Z,97148.00
2022-08-23T17:40:41.045Z,97147.00
2022-08-23T17:45:46.050Z,97161.00
2022-08-23T17:50:47.924Z,97157.00
2022-08-23T17:55:48.796Z,97160.00
2022-08-23T18:00:50.864Z,97158.00
2022-08-23T18:05:52.543Z,97162.00
2022-08-23T18:10:53.571Z,97167.00
2022-08-23T18:15:54.905Z,97171.00
2022-08-23T18:20:55.842Z,97179.00
2022-08-23T18:25:56.693Z,97177.00
2022-08-23T18:30:59.848Z,97182.00
2022-08-23T18:36:01.768Z,97194.00
2022-08-23T18:41:02.716Z,97197.00
2022-08-23T18:46:04.209Z,97194.00
2022-08-23T18:51:07.239Z,97208.00
2022-08-23T18:56:18.889Z,97204.00
2022-08-23T19:01:26.269Z,97216.00
2022-08-23T19:06:28.219Z,97216.00
2022-08-23T19:11:29.262Z,97222.00
2022-08-23T19:16:30.321Z,97230.00
2022-08-23T19:21:32.611Z,97238.00
2022-08-23T19:26:35.415Z,97243.00
2022-08-23T19:31:42.051Z,97245.00
2022-08-23T19:36:47.343Z,97249.00
2022-08-23T19:41:49.468Z,97252.00
2022-08-23T19:46:50.583Z,97248.00
2022-08-23T19:51:51.891Z,97256.00
2022-08-23T19:56:56.846Z,97253.00
2022-08-23T20:01:58.573Z,97256.00
2022-08-23T20:07:01.805Z,97265.00
2022-08-23T20:12:03.666Z,97264.00
2022-08-23T20:17:06.663Z,97260.00
2022-08-23T20:22:25.920Z,97260.00
2022-08-23T20:27:30.870Z,97255.00
2022-08-23T20:32:32.732Z,97270.00
2022-08-23T20:37:34.293Z,97269.00
2022-08-23T20:42:36.786Z,97271.00
2022-08-23T20:47:39.542Z,97272.00
2022-08-23T20:52:40.408Z,97264.00
2022-08-23T20:57:41.310Z,97269.00
2022-08-23T21:02:42.546Z,97267.00
2022-08-23T21:07:43.426Z,97275.00
2022-08-23T21:12:44.808Z,97281.00
2022-08-23T21:17:46.753Z,97278.00
2022-08-23T21:22:49.054Z,97280.00
2022-08-23T21:27:49.881Z,97282.00
2022-08-23T21:32:50.944Z,97282.00
2022-08-23T21:37:51.892Z,97276.00
2022-08-23T21:42:52.771Z,97277.00
2022-08-23T21:47:54.693Z,97273.00
2022-08-23T21:52:56.564Z,97281.00
2022-08-23T21:57:58.416Z,97284.00
2022-08-23T22:02:59.708Z,97282.00
2022-08-23T22:08:01.378Z,97279.00
2022-08-23T22:13:03.720Z,97278.00
2022-08-23T22:18:04.805Z,97283.00
2022-08-23T22:23:05.649Z,97280.00
2022-08-23T22:28:07.281Z,97270.00
2022-08-23T22:33:09.620Z,97274.00
2022-08-23T22:38:14.170Z,97266.00
2022-08-23T22:43:17.152Z,97260.00
2022-08-23T22:48:18.549Z,97264.00
2022-08-23T22:53:19.962Z,97264.00
2022-08-23T22:58:20.779Z,97271.00
2022-08-23T23:03:22.159Z,97261.00
2022-08-23T23:08:26.786Z,97261.00
2022-08-23T23:13:30.680Z,97267.00
2022-08-23T23:18:31.981Z,97272.00
2022-08-23T23:23:35.368Z,97268.00
2022-08-23T23:28:36.195Z,97262.00
2022-08-23T23:33:37.201Z,97267.00
2022-08-23T23:38:38.003Z,97268.00
2022-08-23T23:43:38.895Z,97267.00
2022-08-23T23:48:42.041Z,97274.00
2022-08-23T23:53:43.136Z,97270.00
2022-08-23T23:58:44.805Z,97284.00
